Time;durP1;ratioP1;P1;durP2;ratioP2;P2;SDS_P1;SDS_P2;PMS_P1;PMS_P2;Temp;Humidity;BMP_temperature;BMP_pressure;BME280_temperature;BME280_humidity;BME280_pressure;Samples;Min_cycle;Max_cycle;Signal;HPM_P1;HPM_P2
2023/08/22 00:00:43;;;;;;;7.27;4.53;;;22.10;99.90;;;;;;5086278;28;21326;-69
2023/08/22 00:03:29;;;;;;;4.53;4.00;;;22.00;99.90;;;;;;5083548;28;21078;-69
2023/08/22 00:06:14;;;;;;;8.10;4.23;;;21.90;99.90;;;;;;5081661;28;20497;-69
2023/08/22 00:09:04;;;;;;;5.83;4.23;;;21.70;99.90;;;;;;5081142;28;20605;-70
2023/08/22 00:11:49;;;;;;;9.87;4.93;;;21.60;99.90;;;;;;5075434;28;20495;-70
2023/08/22 00:14:35;;;;;;;5.47;4.17;;;21.50;99.90;;;;;;5083988;28;20439;-70
2023/08/22 00:17:21;;;;;;;10.30;4.20;;;21.50;99.90;;;;;;5084785;28;20596;-70
2023/08/22 00:20:08;;;;;;;8.03;4.57;;;21.40;99.90;;;;;;5080353;28;20431;-70
2023/08/22 00:22:53;;;;;;;6.43;4.60;;;21.40;99.90;;;;;;5084110;28;20502;-70
2023/08/22 00:25:40;;;;;;;8.27;4.90;;;21.30;99.90;;;;;;5084861;28;20479;-70
2023/08/22 00:28:25;;;;;;;6.43;4.80;;;21.50;99.90;;;;;;5088978;28;20437;-70
2023/08/22 00:31:11;;;;;;;6.30;4.93;;;21.30;99.90;;;;;;5085560;28;20411;-70
2023/08/22 00:33:58;;;;;;;8.37;4.40;;;21.30;99.90;;;;;;5086306;28;20556;-70
2023/08/22 00:36:43;;;;;;;5.90;5.10;;;21.40;99.90;;;;;;5085391;28;20439;-70
2023/08/22 00:39:29;;;;;;;6.03;4.17;;;21.40;99.90;;;;;;5082821;28;20449;-70
2023/08/22 00:42:16;;;;;;;6.00;4.60;;;21.40;99.90;;;;;;5083844;28;21117;-70
2023/08/22 00:45:01;;;;;;;6.97;4.40;;;21.40;99.90;;;;;;5085558;28;20920;-70
2023/08/22 00:47:47;;;;;;;5.67;4.30;;;21.40;99.90;;;;;;5086841;28;20450;-70
2023/08/22 00:50:33;;;;;;;17.73;5.50;;;21.40;99.90;;;;;;5088585;28;20819;-70
2023/08/22 00:53:19;;;;;;;8.00;4.43;;;21.40;99.90;;;;;;5078303;28;21112;-70
2023/08/22 00:56:05;;;;;;;6.47;4.53;;;21.40;99.90;;;;;;5080976;28;20450;-70
2023/08/22 00:58:52;;;;;;;7.23;4.30;;;21.50;99.90;;;;;;5085517;28;20442;-70
2023/08/22 01:01:37;;;;;;;5.83;4.83;;;21.60;99.90;;;;;;5086537;28;20508;-70
2023/08/22 01:04:23;;;;;;;6.50;4.50;;;21.60;99.90;;;;;;5083987;28;20527;-70
2023/08/22 01:07:16;;;;;;;7.27;4.23;;;21.60;99.90;;;;;;5081799;28;20508;-70
2023/08/22 01:10:06;;;;;;;10.13;4.40;;;21.60;99.90;;;;;;5082841;28;20439;-70
2023/08/22 01:12:58;;;;;;;8.00;4.93;;;21.60;99.90;;;;;;5080507;28;20491;-71
2023/08/22 01:15:45;;;;;;;4.63;3.90;;;21.60;99.90;;;;;;5079440;28;20496;-70
2023/08/22 01:18:31;;;;;;;5.53;4.30;;;21.60;99.90;;;;;;5080888;28;20441;-70
2023/08/22 01:21:21;;;;;;;9.20;4.17;;;21.60;99.90;;;;;;5079793;28;20438;-70
2023/08/22 01:24:08;;;;;;;7.57;4.40;;;21.60;99.90;;;;;;5083667;28;20474;-70
2023/08/22 01:26:53;;;;;;;5.40;4.73;;;21.60;99.90;;;;;;5082316;28;20458;-70
2023/08/22 01:29:43;;;;;;;7.80;4.77;;;21.50;99.90;;;;;;5084256;28;20442;-70
2023/08/22 01:32:33;;;;;;;4.47;3.87;;;21.50;99.90;;;;;;5087318;28;20473;-70
2023/08/22 01:35:22;;;;;;;12.30;4.70;;;21.40;99.90;;;;;;5078321;28;20452;-70
2023/08/22 01:38:09;;;;;;;5.50;3.97;;;21.50;99.90;;;;;;5084362;28;20809;-70
2023/08/22 01:40:58;;;;;;;6.70;4.37;;;21.50;99.90;;;;;;5079927;28;20438;-70
2023/08/22 01:43:43;;;;;;;8.13;5.20;;;21.50;99.90;;;;;;5081621;28;21041;-70
2023/08/22 01:46:29;;;;;;;5.90;4.70;;;21.40;99.90;;;;;;5086596;28;20416;-70
2023/08/22 01:49:14;;;;;;;7.80;4.60;;;21.30;99.90;;;;;;5081855;28;20442;-70
2023/08/22 01:52:00;;;;;;;6.60;4.33;;;21.30;99.90;;;;;;5084228;28;20477;-70
2023/08/22 01:54:45;;;;;;;8.17;4.07;;;21.40;99.90;;;;;;5085848;28;20936;-70
2023/08/22 01:57:32;;;;;;;6.30;4.17;;;21.50;99.90;;;;;;5083199;28;20443;-70
2023/08/22 02:00:18;;;;;;;7.87;5.23;;;21.50;99.90;;;;;;5083491;28;20444;-70
2023/08/22 02:03:04;;;;;;;6.80;4.87;;;21.60;99.90;;;;;;5082238;28;21055;-70
2023/08/22 02:05:50;;;;;;;5.47;4.17;;;21.50;99.90;;;;;;5081131;28;20438;-70
2023/08/22 02:08:37;;;;;;;6.93;4.63;;;21.40;99.90;;;;;;5073225;28;20458;-70
2023/08/22 02:11:22;;;;;;;6.63;4.73;;;21.30;99.90;;;;;;5080617;28;20469;-70
2023/08/22 02:14:09;;;;;;;12.13;5.00;;;21.20;99.90;;;;;;5083541;28;21012;-70
2023/08/22 02:16:55;;;;;;;8.67;4.90;;;21.10;99.90;;;;;;5084801;28;20519;-70
2023/08/22 02:19:40;;;;;;;11.80;5.33;;;21.00;99.90;;;;;;5081170;28;20470;-70
2023/08/22 02:22:26;;;;;;;7.50;5.50;;;20.90;99.90;;;;;;5076289;28;20840;-70
2023/08/22 02:25:12;;;;;;;8.87;5.23;;;20.90;99.90;;;;;;5076315;28;20815;-70
2023/08/22 02:27:57;;;;;;;8.10;5.53;;;20.90;99.90;;;;;;5075551;28;20449;-70
2023/08/22 02:30:44;;;;;;;8.30;6.00;;;20.70;99.90;;;;;;5082494;28;20434;-70
2023/08/22 02:33:29;;;;;;;5.87;5.17;;;20.70;99.90;;;;;;5081967;28;20802;-70
2023/08/22 02:36:14;;;;;;;8.47;5.00;;;20.80;99.90;;;;;;5080333;28;20499;-70
2023/08/22 02:39:00;;;;;;;8.83;5.37;;;20.80;99.90;;;;;;5076962;28;20441;-70
2023/08/22 02:41:45;;;;;;;8.03;5.63;;;20.90;99.90;;;;;;5076858;28;20593;-70
2023/08/22 02:44:31;;;;;;;10.23;5.20;;;20.80;99.90;;;;;;5080074;28;21067;-70
2023/08/22 02:47:19;;;;;;;7.53;4.67;;;20.90;99.90;;;;;;5072133;28;20794;-70
2023/08/22 02:50:06;;;;;;;6.67;4.30;;;21.00;99.90;;;;;;5082001;28;20581;-70
2023/08/22 02:52:52;;;;;;;6.70;4.80;;;21.00;99.90;;;;;;5079449;28;20816;-70
2023/08/22 02:55:37;;;;;;;5.30;4.60;;;21.00;99.90;;;;;;5075779;28;20492;-70
2023/08/22 02:58:22;;;;;;;10.23;4.23;;;21.00;99.90;;;;;;5080596;28;20445;-70
2023/08/22 03:01:08;;;;;;;7.43;4.80;;;21.00;99.90;;;;;;5077065;28;20892;-70
2023/08/22 03:03:56;;;;;;;7.70;5.30;;;20.90;99.90;;;;;;5077810;28;21017;-70
2023/08/22 03:06:41;;;;;;;6.30;4.80;;;20.80;99.90;;;;;;5078626;28;20450;-70
2023/08/22 03:09:28;;;;;;;6.93;5.10;;;20.70;99.90;;;;;;5080921;28;20484;-70
2023/08/22 03:12:14;;;;;;;11.43;5.20;;;20.80;99.90;;;;;;5070809;28;20482;-70
2023/08/22 03:14:59;;;;;;;7.63;4.80;;;20.70;99.90;;;;;;5076077;28;20577;-70
2023/08/22 03:17:45;;;;;;;7.60;4.90;;;20.60;99.90;;;;;;5081425;28;20811;-70
2023/08/22 03:20:32;;;;;;;12.23;5.77;;;20.60;99.90;;;;;;5082550;28;20446;-70
2023/08/22 03:23:17;;;;;;;6.47;5.20;;;20.60;99.90;;;;;;5079097;28;20474;-70
2023/08/22 03:26:03;;;;;;;6.30;5.70;;;20.60;99.90;;;;;;5082723;28;21262;-70
2023/08/22 03:28:49;;;;;;;10.77;5.20;;;20.60;99.90;;;;;;5081272;28;20424;-70
2023/08/22 03:31:34;;;;;;;10.33;5.60;;;20.60;99.90;;;;;;5079713;28;20416;-70
2023/08/22 03:34:20;;;;;;;7.73;5.23;;;20.60;99.90;;;;;;5086755;28;20441;-70
2023/08/22 03:37:06;;;;;;;9.27;5.80;;;20.60;99.90;;;;;;5079801;28;20532;-70
2023/08/22 03:39:52;;;;;;;6.03;5.00;;;20.60;99.90;;;;;;5087918;28;20445;-70
2023/08/22 03:42:38;;;;;;;6.93;6.10;;;20.60;99.90;;;;;;5084123;28;20497;-71
2023/08/22 03:45:23;;;;;;;8.00;6.17;;;20.60;99.90;;;;;;5077687;28;20532;-70
2023/08/22 03:48:09;;;;;;;7.40;5.63;;;20.70;99.90;;;;;;5084337;28;20453;-70
2023/08/22 03:50:54;;;;;;;10.33;5.57;;;20.70;99.90;;;;;;5086544;28;20947;-70
2023/08/22 03:53:41;;;;;;;8.77;5.80;;;20.70;99.90;;;;;;5083634;28;20510;-70
2023/08/22 03:56:26;;;;;;;7.27;5.30;;;20.60;99.90;;;;;;5079274;28;20446;-70
2023/08/22 03:59:12;;;;;;;6.37;5.67;;;20.60;99.90;;;;;;5077509;28;20829;-70
2023/08/22 04:01:58;;;;;;;8.20;6.80;;;20.50;99.90;;;;;;5082870;28;20474;-70
2023/08/22 04:04:43;;;;;;;10.93;5.63;;;20.40;99.90;;;;;;5080873;28;20484;-70
2023/08/22 04:07:29;;;;;;;8.90;6.20;;;20.30;99.90;;;;;;5076935;28;20496;-70
2023/08/22 04:10:16;;;;;;;6.30;5.40;;;20.30;99.90;;;;;;5081904;28;20441;-70
2023/08/22 04:13:01;;;;;;;9.10;6.30;;;20.40;99.90;;;;;;5083116;28;22814;-70
2023/08/22 04:15:47;;;;;;;11.73;7.70;;;20.50;99.90;;;;;;5080219;28;20461;-70
2023/08/22 04:18:32;;;;;;;6.10;4.80;;;20.40;99.90;;;;;;5085840;28;20839;-70
2023/08/22 04:21:18;;;;;;;8.23;6.60;;;20.30;99.90;;;;;;5078275;28;20955;-70
2023/08/22 04:24:04;;;;;;;8.10;6.13;;;20.30;99.90;;;;;;5077248;28;20451;-70
2023/08/22 04:26:51;;;;;;;9.03;5.67;;;20.20;99.90;;;;;;5082339;28;20462;-70
2023/08/22 04:29:36;;;;;;;8.13;5.73;;;20.30;99.90;;;;;;5079966;28;20444;-70
2023/08/22 04:32:22;;;;;;;9.93;5.60;;;20.30;99.90;;;;;;5080534;28;20461;-70
2023/08/22 04:35:08;;;;;;;7.43;5.63;;;20.30;99.90;;;;;;5076463;28;20449;-70
2023/08/22 04:37:53;;;;;;;6.30;5.10;;;20.40;99.90;;;;;;5078110;28;20555;-70
2023/08/22 04:40:39;;;;;;;6.57;5.30;;;20.50;99.90;;;;;;5077876;28;20596;-70
2023/08/22 04:43:26;;;;;;;6.70;5.57;;;20.60;99.90;;;;;;5088207;28;21014;-70
2023/08/22 04:46:12;;;;;;;6.00;5.40;;;20.50;99.90;;;;;;5081574;28;20957;-70
2023/08/22 04:48:58;;;;;;;8.77;6.40;;;20.60;99.90;;;;;;5074235;28;20458;-70
2023/08/22 04:51:43;;;;;;;8.23;6.27;;;20.60;99.90;;;;;;5075275;28;20905;-70
2023/08/22 04:54:29;;;;;;;8.73;5.60;;;20.60;99.90;;;;;;5081841;28;20467;-70
2023/08/22 04:57:15;;;;;;;8.13;6.17;;;20.40;99.90;;;;;;5074268;28;20446;-70
2023/08/22 05:00:01;;;;;;;9.67;6.40;;;20.30;99.90;;;;;;5080209;28;20496;-70
2023/08/22 05:02:48;;;;;;;8.10;5.77;;;20.30;99.90;;;;;;5079314;28;20461;-70
2023/08/22 05:05:34;;;;;;;7.53;6.13;;;20.20;99.90;;;;;;5081683;28;20695;-70
2023/08/22 05:08:19;;;;;;;10.30;6.67;;;20.20;99.90;;;;;;5079896;28;20477;-70
2023/08/22 05:11:05;;;;;;;8.60;7.20;;;20.00;99.90;;;;;;5073778;28;20461;-70
2023/08/22 05:13:51;;;;;;;14.37;7.07;;;19.90;99.90;;;;;;5081561;28;20503;-70
2023/08/22 05:16:39;;;;;;;7.97;7.03;;;19.90;99.90;;;;;;5071397;28;20889;-70
2023/08/22 05:19:24;;;;;;;9.03;6.70;;;19.80;99.90;;;;;;5080606;28;20453;-70
2023/08/22 05:22:10;;;;;;;8.53;7.03;;;19.80;99.90;;;;;;5078959;28;20546;-70
2023/08/22 05:24:55;;;;;;;10.50;7.23;;;19.80;99.90;;;;;;5079623;28;20458;-70
2023/08/22 05:27:41;;;;;;;8.57;7.20;;;19.90;99.90;;;;;;5074569;28;20440;-70
2023/08/22 05:30:27;;;;;;;6.83;6.10;;;19.80;99.90;;;;;;5077337;28;20450;-70
2023/08/22 05:33:13;;;;;;;9.87;6.77;;;19.90;99.90;;;;;;5076359;28;21108;-70
2023/08/22 05:35:59;;;;;;;10.77;6.30;;;20.00;99.90;;;;;;5071812;28;20424;-70
2023/08/22 05:38:45;;;;;;;11.13;6.47;;;20.20;99.90;;;;;;5080581;28;20449;-70
2023/08/22 05:41:30;;;;;;;8.53;6.50;;;20.40;99.90;;;;;;5076459;28;20441;-70
2023/08/22 05:44:16;;;;;;;8.67;6.63;;;20.50;99.90;;;;;;5074112;28;20474;-70
2023/08/22 05:47:04;;;;;;;8.27;6.00;;;20.60;99.90;;;;;;5073583;28;20480;-70
2023/08/22 05:49:51;;;;;;;9.77;6.07;;;20.70;99.90;;;;;;5077792;28;21320;-70
2023/08/22 05:52:37;;;;;;;9.60;6.40;;;20.70;99.90;;;;;;5072995;28;20994;-70
2023/08/22 05:55:22;;;;;;;19.43;6.60;;;20.90;99.90;;;;;;5081694;28;20835;-70
2023/08/22 05:58:08;;;;;;;6.77;6.07;;;21.00;99.90;;;;;;5072322;28;21065;-70
2023/08/22 06:00:53;;;;;;;8.73;5.57;;;21.10;99.90;;;;;;5076489;28;20461;-70
2023/08/22 06:03:39;;;;;;;8.67;5.83;;;21.20;99.90;;;;;;5077480;28;20520;-70
2023/08/22 06:06:26;;;;;;;8.17;6.70;;;21.30;99.90;;;;;;5081106;28;20442;-70
2023/08/22 06:09:11;;;;;;;7.03;6.00;;;21.40;99.90;;;;;;5080476;28;20808;-70
2023/08/22 06:11:57;;;;;;;7.60;5.47;;;21.50;99.90;;;;;;5076894;28;20482;-70
2023/08/22 06:14:42;;;;;;;8.00;5.80;;;21.60;99.90;;;;;;5076916;28;20439;-70
2023/08/22 06:17:28;;;;;;;10.13;7.67;;;21.60;99.90;;;;;;5075461;28;20442;-70
2023/08/22 06:20:15;;;;;;;6.43;5.70;;;21.70;99.90;;;;;;5071634;28;20478;-70
2023/08/22 06:23:01;;;;;;;10.37;6.20;;;21.80;99.90;;;;;;5077979;28;20481;-70
2023/08/22 06:25:48;;;;;;;8.97;6.23;;;21.90;99.90;;;;;;5079012;28;20455;-71
2023/08/22 06:28:33;;;;;;;7.90;6.87;;;22.00;99.90;;;;;;5078932;28;20820;-70
2023/08/22 06:31:19;;;;;;;6.60;5.93;;;22.10;99.90;;;;;;5073339;28;20442;-70
2023/08/22 06:34:04;;;;;;;6.40;5.77;;;22.20;99.90;;;;;;5077895;28;20678;-70
2023/08/22 06:36:50;;;;;;;9.93;6.00;;;22.30;99.90;;;;;;5076527;28;20442;-70
2023/08/22 06:39:38;;;;;;;13.07;6.07;;;22.30;99.90;;;;;;5075496;28;20438;-70
2023/08/22 06:42:23;;;;;;;9.73;6.83;;;22.40;99.90;;;;;;5076455;28;20524;-71
2023/08/22 06:45:09;;;;;;;10.03;5.93;;;22.40;99.90;;;;;;5081310;28;20572;-70
2023/08/22 06:47:56;;;;;;;17.63;7.60;;;22.50;99.90;;;;;;5077818;28;20497;-70
2023/08/22 06:50:41;;;;;;;7.43;6.67;;;22.60;99.90;;;;;;5075815;28;20538;-70
2023/08/22 06:53:27;;;;;;;8.97;6.50;;;22.70;99.90;;;;;;5075519;28;20825;-70
2023/08/22 06:56:14;;;;;;;10.63;7.60;;;22.70;99.90;;;;;;5078486;28;20514;-70
2023/08/22 06:58:59;;;;;;;10.47;6.50;;;22.80;99.90;;;;;;5076850;28;20450;-70
2023/08/22 07:01:45;;;;;;;10.20;6.90;;;22.90;99.90;;;;;;5076879;28;20443;-70
2023/08/22 07:04:30;;;;;;;7.83;6.07;;;23.00;99.90;;;;;;5075147;28;20479;-70
2023/08/22 07:07:16;;;;;;;10.50;6.87;;;23.00;99.90;;;;;;5074414;28;20447;-70
2023/08/22 07:10:03;;;;;;;13.53;6.87;;;23.10;99.90;;;;;;5076344;28;20448;-70
2023/08/22 07:12:49;;;;;;;10.60;6.60;;;23.20;99.90;;;;;;5077099;28;20479;-70
2023/08/22 07:15:35;;;;;;;14.60;7.33;;;23.30;99.90;;;;;;5075424;28;20798;-70
2023/08/22 07:18:20;;;;;;;12.40;7.23;;;23.40;99.90;;;;;;5070274;28;20438;-70
2023/08/22 07:21:07;;;;;;;11.33;7.17;;;23.40;99.90;;;;;;5077791;28;20447;-71
2023/08/22 07:23:52;;;;;;;13.30;6.77;;;23.50;99.90;;;;;;5077948;28;20831;-70
2023/08/22 07:26:38;;;;;;;12.37;7.13;;;23.60;99.90;;;;;;5078858;28;21044;-70
2023/08/22 07:29:24;;;;;;;8.93;7.37;;;23.80;99.90;;;;;;5075335;28;20500;-71
2023/08/22 07:32:10;;;;;;;9.37;7.53;;;23.90;99.90;;;;;;5078078;28;20514;-70
2023/08/22 07:34:57;;;;;;;8.63;7.67;;;23.90;99.90;;;;;;5077724;28;20556;-71
2023/08/22 07:37:42;;;;;;;9.80;8.53;;;24.00;99.90;;;;;;5073170;28;20452;-70
2023/08/22 07:40:28;;;;;;;9.23;7.80;;;24.10;99.90;;;;;;5076690;28;20464;-70
2023/08/22 07:43:13;;;;;;;12.30;9.20;;;24.20;99.90;;;;;;5079451;28;20472;-70
2023/08/22 07:46:00;;;;;;;14.70;8.03;;;24.40;99.90;;;;;;5078863;28;20472;-70
2023/08/22 07:48:46;;;;;;;13.87;7.17;;;24.50;99.90;;;;;;5077430;28;20422;-70
2023/08/22 07:51:32;;;;;;;11.53;8.23;;;24.50;99.90;;;;;;5073985;28;20441;-70
2023/08/22 07:54:17;;;;;;;8.50;7.70;;;24.50;99.90;;;;;;5079824;28;20435;-70
2023/08/22 07:57:02;;;;;;;17.23;8.77;;;24.60;99.90;;;;;;5075057;28;20447;-70
2023/08/22 07:59:48;;;;;;;9.10;7.47;;;24.70;99.90;;;;;;5079022;28;20799;-70
2023/08/22 08:02:35;;;;;;;17.47;7.70;;;24.80;99.90;;;;;;5070667;28;20461;-71
2023/08/22 08:05:20;;;;;;;9.10;7.30;;;24.90;99.90;;;;;;5076325;28;20618;-71
2023/08/22 08:08:07;;;;;;;8.73;7.83;;;25.00;99.90;;;;;;5079078;28;20446;-71
2023/08/22 08:10:53;;;;;;;12.27;7.70;;;25.00;99.90;;;;;;5075466;28;20490;-70
2023/08/22 08:13:38;;;;;;;9.03;6.93;;;25.00;99.90;;;;;;5081780;28;20462;-71
2023/08/22 08:16:24;;;;;;;11.03;7.53;;;25.10;99.90;;;;;;5077599;28;20465;-71
2023/08/22 08:19:13;;;;;;;8.10;6.57;;;25.30;99.90;;;;;;5078076;28;20896;-70
2023/08/22 08:21:58;;;;;;;8.60;7.37;;;25.40;99.90;;;;;;5076663;28;21149;-71
2023/08/22 08:24:44;;;;;;;14.93;7.60;;;25.40;99.90;;;;;;5081690;28;21126;-71
2023/08/22 08:27:29;;;;;;;11.90;7.37;;;25.50;99.90;;;;;;5080539;28;20457;-71
2023/08/22 08:30:15;;;;;;;10.20;6.77;;;25.50;99.90;;;;;;5075925;28;20447;-71
2023/08/22 08:33:04;;;;;;;8.80;6.67;;;25.60;99.90;;;;;;5079055;28;20456;-71
2023/08/22 08:35:51;;;;;;;10.73;7.57;;;25.70;99.90;;;;;;5080711;28;20436;-71
2023/08/22 08:38:36;;;;;;;11.00;7.40;;;25.80;99.90;;;;;;5078526;28;20579;-70
2023/08/22 08:41:23;;;;;;;10.20;7.17;;;25.80;99.90;;;;;;5080189;28;20497;-71
2023/08/22 08:44:10;;;;;;;12.40;7.33;;;25.80;99.90;;;;;;5078572;28;20445;-70
2023/08/22 08:46:57;;;;;;;12.17;7.37;;;25.90;99.90;;;;;;5073599;28;20451;-70
2023/08/22 08:49:42;;;;;;;9.20;7.63;;;26.00;99.90;;;;;;5077562;28;20462;-71
2023/08/22 08:52:30;;;;;;;9.77;7.63;;;26.10;99.90;;;;;;5074073;28;20835;-71
2023/08/22 08:55:16;;;;;;;12.83;7.93;;;26.00;99.90;;;;;;5078961;28;20895;-71
2023/08/22 08:58:01;;;;;;;10.87;8.30;;;26.00;99.90;;;;;;5077799;28;20980;-71
2023/08/22 09:00:47;;;;;;;11.53;8.20;;;26.00;99.90;;;;;;5077706;28;20584;-70
2023/08/22 09:03:33;;;;;;;9.57;8.53;;;26.00;99.90;;;;;;5080347;28;20473;-70
2023/08/22 09:06:20;;;;;;;9.07;8.00;;;25.90;99.90;;;;;;5077764;28;20501;-70
2023/08/22 09:09:08;;;;;;;11.23;8.20;;;26.00;99.90;;;;;;5076856;28;20454;-70
2023/08/22 09:11:54;;;;;;;8.10;6.50;;;26.10;99.90;;;;;;5074168;28;20561;-70
2023/08/22 09:14:42;;;;;;;13.13;9.00;;;26.20;99.90;;;;;;5076428;28;20452;-71
2023/08/22 09:17:29;;;;;;;12.10;7.63;;;26.20;99.90;;;;;;5074159;28;20768;-71
2023/08/22 09:20:15;;;;;;;9.37;8.23;;;26.20;99.90;;;;;;5079476;28;20598;-71
2023/08/22 09:23:00;;;;;;;9.87;8.30;;;26.40;99.90;;;;;;5078673;28;20826;-70
2023/08/22 09:25:47;;;;;;;8.83;6.80;;;26.50;99.90;;;;;;5073167;28;20481;-71
2023/08/22 09:28:38;;;;;;;9.13;8.23;;;26.60;99.90;;;;;;5076371;28;20598;-71
2023/08/22 09:31:24;;;;;;;10.63;7.50;;;26.50;99.90;;;;;;5075186;28;20967;-71
2023/08/22 09:34:12;;;;;;;11.53;7.60;;;26.60;99.90;;;;;;5075933;28;20447;-71
2023/08/22 09:36:58;;;;;;;10.50;7.60;;;26.80;99.90;;;;;;5078518;28;20661;-71
2023/08/22 09:39:54;;;;;;;9.23;8.17;;;26.80;98.50;;;;;;5080617;28;20594;-71
2023/08/22 09:42:42;;;;;;;8.03;7.17;;;26.70;98.70;;;;;;5082147;28;20892;-71
2023/08/22 09:45:29;;;;;;;12.83;7.20;;;26.70;99.90;;;;;;5078389;28;20480;-71
2023/08/22 09:48:22;;;;;;;10.03;7.73;;;26.80;97.50;;;;;;5074144;28;20445;-71
2023/08/22 09:51:10;;;;;;;14.63;8.33;;;26.80;93.80;;;;;;5076080;28;20542;-71
2023/08/22 09:53:59;;;;;;;10.77;9.67;;;26.90;97.70;;;;;;5083147;28;20468;-71
2023/08/22 09:56:46;;;;;;;10.53;7.40;;;26.90;95.90;;;;;;5081985;28;20919;-72
2023/08/22 09:59:34;;;;;;;10.63;7.97;;;26.80;92.10;;;;;;5074953;28;20530;-72
2023/08/22 10:02:20;;;;;;;13.10;8.00;;;26.90;91.70;;;;;;5073188;28;22390;-71
2023/08/22 10:05:06;;;;;;;11.53;6.70;;;26.90;91.70;;;;;;5074552;28;20524;-71
2023/08/22 10:07:52;;;;;;;9.63;8.10;;;26.90;93.60;;;;;;5080030;28;20448;-71
2023/08/22 10:10:38;;;;;;;8.97;7.50;;;27.10;94.00;;;;;;5076132;28;20441;-71
2023/08/22 10:13:25;;;;;;;11.83;7.40;;;27.20;92.60;;;;;;5078957;28;21383;-71
2023/08/22 10:16:12;;;;;;;7.50;6.70;;;27.30;89.40;;;;;;5076475;28;20444;-72
2023/08/22 10:19:02;;;;;;;12.40;7.60;;;27.30;90.50;;;;;;5073147;28;20870;-72
2023/08/22 10:21:48;;;;;;;8.23;5.70;;;27.40;90.30;;;;;;5076070;28;20457;-71
2023/08/22 10:24:34;;;;;;;13.07;5.07;;;27.60;88.50;;;;;;5080962;28;20461;-71
2023/08/22 10:27:19;;;;;;;7.37;4.83;;;27.60;66.00;;;;;;5076627;28;20467;-71
2023/08/22 10:30:19;;;;;;;8.30;4.40;;;27.70;71.70;;;;;;5076400;28;20456;-71
2023/08/22 10:33:09;;;;;;;9.40;4.83;;;27.80;53.10;;;;;;5080630;28;20492;-71
2023/08/22 10:36:03;;;;;;;10.17;4.20;;;27.80;55.30;;;;;;5080854;28;20903;-71
2023/08/22 10:38:51;;;;;;;7.60;4.47;;;28.00;61.50;;;;;;5082107;28;20473;-71
2023/08/22 10:41:46;;;;;;;5.13;4.27;;;28.20;57.30;;;;;;5078707;28;20857;-72
2023/08/22 10:44:32;;;;;;;10.07;4.30;;;28.20;47.50;;;;;;5083504;28;20950;-71
2023/08/22 10:47:18;;;;;;;9.47;4.13;;;28.20;47.50;;;;;;5077409;28;20444;-71
2023/08/22 10:50:12;;;;;;;9.07;7.10;;;28.20;38.80;;;;;;5076886;28;20918;-72
2023/08/22 10:53:12;;;;;;;6.73;4.67;;;28.20;44.30;;;;;;5082927;28;20989;-71
2023/08/22 10:56:17;;;;;;;5.13;3.90;;;28.30;47.60;;;;;;5082649;28;20491;-71
2023/08/22 10:59:03;;;;;;;6.67;4.10;;;28.50;35.20;;;;;;5080371;28;20821;-71
2023/08/22 11:01:50;;;;;;;5.30;4.20;;;28.50;37.10;;;;;;5082080;28;20452;-71
2023/08/22 11:04:36;;;;;;;6.03;3.40;;;28.50;36.70;;;;;;5082409;28;20434;-71
2023/08/22 11:07:23;;;;;;;4.80;3.27;;;28.50;37.70;;;;;;5078192;28;20526;-71
2023/08/22 11:10:09;;;;;;;6.33;3.60;;;28.60;31.50;;;;;;5082201;28;20452;-71
2023/08/22 11:12:56;;;;;;;6.23;3.47;;;28.60;34.60;;;;;;5076621;28;20477;-70
2023/08/22 11:15:43;;;;;;;4.97;3.60;;;28.60;29.40;;;;;;5081298;28;21088;-71
2023/08/22 11:18:29;;;;;;;6.80;3.83;;;28.60;31.30;;;;;;5081028;28;20954;-71
2023/08/22 11:21:14;;;;;;;6.17;4.20;;;28.80;32.90;;;;;;5082380;28;20438;-71
2023/08/22 11:24:01;;;;;;;5.07;4.03;;;28.90;33.70;;;;;;5071194;28;20465;-71
2023/08/22 11:26:52;;;;;;;4.90;4.00;;;29.10;33.90;;;;;;5080471;28;21006;-71
2023/08/22 11:29:42;;;;;;;7.93;4.23;;;29.30;34.90;;;;;;5080693;28;20824;-71
2023/08/22 11:32:28;;;;;;;15.20;4.60;;;29.30;33.60;;;;;;5076144;28;20467;-71
2023/08/22 11:35:14;;;;;;;5.40;3.57;;;29.40;35.70;;;;;;5074301;28;20442;-71
2023/08/22 11:38:01;;;;;;;5.90;4.30;;;29.40;29.00;;;;;;5079787;28;20454;-71
2023/08/22 11:40:48;;;;;;;16.20;5.40;;;29.40;32.60;;;;;;5078988;28;20476;-71
2023/08/22 11:43:34;;;;;;;8.70;4.80;;;29.40;36.10;;;;;;5084001;28;20596;-70
2023/08/22 11:46:22;;;;;;;11.30;4.90;;;29.50;37.30;;;;;;5079500;28;20503;-71
2023/08/22 11:49:08;;;;;;;5.90;4.77;;;29.60;38.10;;;;;;5083652;28;20539;-71
2023/08/22 11:51:53;;;;;;;5.10;3.87;;;29.50;32.90;;;;;;5083022;28;20445;-70
2023/08/22 11:54:43;;;;;;;7.30;5.37;;;29.40;33.00;;;;;;5080886;28;20451;-71
2023/08/22 11:57:30;;;;;;;6.07;4.80;;;29.50;36.90;;;;;;5081774;28;20589;-71
2023/08/22 12:00:16;;;;;;;6.87;4.87;;;29.40;39.50;;;;;;5085513;28;20450;-71
2023/08/22 12:03:05;;;;;;;5.93;4.70;;;29.50;40.30;;;;;;5087310;28;20467;-71
2023/08/22 12:05:50;;;;;;;7.37;4.80;;;29.70;41.40;;;;;;5083231;28;20589;-70
2023/08/22 12:08:36;;;;;;;7.10;4.27;;;29.90;40.20;;;;;;5082131;28;20440;-71
2023/08/22 12:11:26;;;;;;;11.50;5.20;;;29.90;40.10;;;;;;5079069;28;20454;-71
2023/08/22 12:14:12;;;;;;;6.37;4.37;;;29.90;33.00;;;;;;5078602;28;21086;-71
2023/08/22 12:16:58;;;;;;;9.80;5.50;;;29.70;39.30;;;;;;5079289;28;20523;-71
2023/08/22 12:19:43;;;;;;;5.00;4.50;;;29.90;38.50;;;;;;5082688;28;20438;-71
2023/08/22 12:22:29;;;;;;;6.60;5.10;;;29.90;36.00;;;;;;5084383;28;20467;-70
2023/08/22 12:25:14;;;;;;;5.43;4.17;;;30.10;34.70;;;;;;5079125;28;20440;-71
2023/08/22 12:28:01;;;;;;;6.27;4.07;;;30.20;32.80;;;;;;5079749;28;20436;-70
2023/08/22 12:30:48;;;;;;;6.40;3.63;;;30.30;32.00;;;;;;5087323;28;20550;-71
2023/08/22 12:33:34;;;;;;;7.60;4.30;;;30.30;30.40;;;;;;5078467;28;20994;-71
2023/08/22 12:36:19;;;;;;;7.43;4.20;;;30.40;34.00;;;;;;5082728;28;20850;-71
2023/08/22 12:39:04;;;;;;;5.40;3.80;;;30.40;32.80;;;;;;5085620;28;20459;-70
2023/08/22 12:41:50;;;;;;;5.93;3.70;;;30.10;31.50;;;;;;5079878;28;20450;-70
2023/08/22 12:44:35;;;;;;;6.47;3.90;;;30.20;31.50;;;;;;5082894;28;20439;-70
2023/08/22 12:47:22;;;;;;;6.70;3.90;;;30.00;31.40;;;;;;5082129;28;20483;-71
2023/08/22 12:50:08;;;;;;;8.10;4.33;;;29.90;32.20;;;;;;5081574;28;20809;-71
2023/08/22 12:52:53;;;;;;;7.37;3.80;;;30.20;32.50;;;;;;5084712;28;20525;-71
2023/08/22 12:55:41;;;;;;;5.87;4.13;;;30.30;29.60;;;;;;5087944;28;20444;-71
2023/08/22 12:58:28;;;;;;;7.43;3.53;;;30.40;28.80;;;;;;5089069;28;20507;-71
2023/08/22 13:01:14;;;;;;;7.07;3.67;;;30.30;28.40;;;;;;5079925;28;20492;-71
2023/08/22 13:04:01;;;;;;;8.27;4.23;;;30.30;30.90;;;;;;5088031;28;20472;-70
2023/08/22 13:06:46;;;;;;;5.80;4.00;;;30.70;29.90;;;;;;5086002;28;21051;-70
2023/08/22 13:09:33;;;;;;;6.90;3.63;;;31.00;29.90;;;;;;5085898;28;21086;-71
2023/08/22 13:12:18;;;;;;;5.90;3.50;;;31.40;29.50;;;;;;5080219;28;20822;-71
2023/08/22 13:15:05;;;;;;;5.67;3.10;;;31.70;27.60;;;;;;5090497;28;20674;-71
2023/08/22 13:17:50;;;;;;;8.03;3.17;;;31.70;27.10;;;;;;5084480;28;20437;-71
2023/08/22 13:20:37;;;;;;;5.37;3.47;;;31.70;24.40;;;;;;5082183;28;20447;-71
2023/08/22 13:23:22;;;;;;;5.43;3.67;;;31.30;24.40;;;;;;5086950;28;20462;-71
2023/08/22 13:26:08;;;;;;;11.03;3.70;;;31.50;24.70;;;;;;5084270;28;20601;-71
2023/08/22 13:28:53;;;;;;;4.53;3.40;;;31.70;24.50;;;;;;5082754;28;21018;-71
2023/08/22 13:31:39;;;;;;;6.57;3.43;;;31.90;26.40;;;;;;5081761;28;20966;-72
2023/08/22 13:34:24;;;;;;;5.83;3.67;;;32.00;26.90;;;;;;5072527;28;20606;-71
2023/08/22 13:37:11;;;;;;;5.23;3.93;;;32.30;25.80;;;;;;5085829;28;20523;-71
2023/08/22 13:39:57;;;;;;;7.00;3.60;;;32.50;26.30;;;;;;5083193;28;20456;-71
2023/08/22 13:42:42;;;;;;;6.70;3.67;;;32.40;22.40;;;;;;5076162;28;20479;-72
2023/08/22 13:45:28;;;;;;;6.33;3.13;;;32.30;23.20;;;;;;5069729;28;20632;-71
2023/08/22 13:48:13;;;;;;;5.40;3.80;;;32.10;23.50;;;;;;5074696;28;20491;-70
2023/08/22 13:50:59;;;;;;;5.10;3.10;;;32.00;23.10;;;;;;5079801;28;20456;-72
2023/08/22 13:53:46;;;;;;;5.40;3.33;;;32.20;23.50;;;;;;5080546;28;20475;-70
2023/08/22 13:56:32;;;;;;;6.40;3.40;;;32.00;20.40;;;;;;5077815;28;20558;-70
2023/08/22 13:59:17;;;;;;;7.83;3.73;;;31.70;23.10;;;;;;5083613;28;20884;-71
2023/08/22 14:02:03;;;;;;;6.20;3.30;;;31.70;23.20;;;;;;5076188;28;20481;-71
2023/08/22 14:04:48;;;;;;;6.87;3.40;;;32.00;24.30;;;;;;5079830;28;20435;-70
2023/08/22 14:07:34;;;;;;;7.40;3.03;;;32.20;23.50;;;;;;5081530;28;20507;-70
2023/08/22 14:10:23;;;;;;;8.60;3.23;;;32.40;23.60;;;;;;5078444;28;20588;-71
2023/08/22 14:13:08;;;;;;;7.57;3.40;;;32.70;21.30;;;;;;5074586;28;21016;-71
2023/08/22 14:15:54;;;;;;;6.03;3.23;;;32.80;20.20;;;;;;5078227;28;20459;-72
2023/08/22 14:18:39;;;;;;;6.90;3.70;;;32.80;21.20;;;;;;5081082;28;20808;-73
2023/08/22 14:21:25;;;;;;;9.90;3.57;;;33.00;21.70;;;;;;5071743;28;20454;-71